Time;durP1;ratioP1;P1;durP2;ratioP2;P2;SDS_P1;SDS_P2;PMS_P1;PMS_P2;Temp;Humidity;BMP_temperature;BMP_pressure;BME280_temperature;BME280_humidity;BME280_pressure;Samples;Min_cycle;Max_cycle;Signal;HPM_P1;HPM_P2
2022/09/23 00:01:03;;;;;;;9.55;5.95;;;;;;;6.86;79.49;101905.58;1742810;81;21721;-86
2022/09/23 00:03:32;;;;;;;10.90;6.42;;;;;;;6.84;79.48;101912.03;1753975;81;21400;-86
2022/09/23 00:06:00;;;;;;;12.40;6.08;;;;;;;6.80;79.46;101904.41;1765471;80;20996;-86
2022/09/23 00:08:27;;;;;;;7.50;5.60;;;;;;;6.78;79.50;101904.72;1749981;81;21249;-86
2022/09/23 00:10:54;;;;;;;8.60;5.40;;;;;;;6.78;79.52;101907.75;1777264;80;21400;-86
2022/09/23 00:13:23;;;;;;;13.58;5.55;;;;;;;6.76;79.53;101908.97;1777778;79;22863;-86
2022/09/23 00:15:50;;;;;;;11.10;5.45;;;;;;;6.74;79.57;101909.70;1752361;80;20992;-87
2022/09/23 00:18:19;;;;;;;9.53;5.58;;;;;;;6.72;79.57;101911.30;1755716;80;21432;-87
2022/09/23 00:20:48;;;;;;;10.20;5.65;;;;;;;6.72;79.62;101910.91;1750939;80;21033;-87
2022/09/23 00:23:15;;;;;;;10.28;5.20;;;;;;;6.70;79.60;101909.92;1740677;81;21029;-87
2022/09/23 00:25:42;;;;;;;9.88;5.83;;;;;;;6.71;79.63;101914.33;1765590;80;21591;-87
2022/09/23 00:28:11;;;;;;;10.43;6.05;;;;;;;6.70;79.62;101912.92;1748135;80;21058;-87
2022/09/23 00:30:40;;;;;;;11.45;5.83;;;;;;;6.69;79.66;101907.20;1765615;80;21960;-86
2022/09/23 00:33:07;;;;;;;9.55;6.00;;;;;;;6.69;79.69;101908.52;1769950;80;20971;-87
2022/09/23 00:35:35;;;;;;;8.95;5.40;;;;;;;6.68;79.68;101911.93;1740608;80;20962;-86
2022/09/23 00:38:02;;;;;;;9.45;5.28;;;;;;;6.68;79.69;101909.31;1742751;80;22530;-87
2022/09/23 00:40:29;;;;;;;11.85;5.72;;;;;;;6.66;79.68;101914.45;1740587;82;21002;-87
2022/09/23 00:42:55;;;;;;;12.95;5.42;;;;;;;6.64;79.64;101918.69;1741123;80;21045;-87
2022/09/23 00:45:22;;;;;;;10.20;5.80;;;;;;;6.61;79.68;101914.60;1744623;80;20974;-87
2022/09/23 00:47:55;;;;;;;11.22;5.58;;;;;;;6.61;79.71;101909.38;1740708;80;20982;-87
2022/09/23 00:50:29;;;;;;;10.27;6.40;;;;;;;6.60;79.71;101903.63;1745207;81;21739;-86
2022/09/23 00:52:58;;;;;;;10.08;5.87;;;;;;;6.59;79.73;101897.91;1744852;80;21240;-86
2022/09/23 00:55:29;;;;;;;8.35;5.60;;;;;;;6.57;79.74;101895.20;1749576;80;21069;-86
2022/09/23 00:57:57;;;;;;;10.13;5.75;;;;;;;6.56;79.75;101897.30;1740541;80;21052;-87
2022/09/23 01:00:24;;;;;;;10.95;6.58;;;;;;;6.57;79.75;101893.00;1768147;79;20978;-86
2022/09/23 01:02:51;;;;;;;9.95;5.58;;;;;;;6.56;79.76;101893.80;1777625;80;22539;-87
2022/09/23 01:05:18;;;;;;;9.28;5.40;;;;;;;6.56;79.76;101896.41;1775815;80;20963;-87
2022/09/23 01:07:45;;;;;;;9.98;5.62;;;;;;;6.54;79.74;101892.39;1752596;81;21096;-87
2022/09/23 01:10:13;;;;;;;9.10;6.25;;;;;;;6.52;79.76;101890.09;1741632;81;21005;-88
2022/09/23 01:13:02;;;;;;;11.28;5.87;;;;;;;6.52;79.76;101890.51;1733109;81;21040;-87
2022/09/23 01:15:48;;;;;;;7.83;5.85;;;;;;;6.49;79.73;101889.89;1736436;81;21805;-86
2022/09/23 01:18:45;;;;;;;8.00;4.97;;;;;;;6.47;79.73;101885.40;1702481;82;21585;-87
2022/09/23 01:21:33;;;;;;;11.40;5.50;;;;;;;6.45;79.77;101879.17;1748929;80;20965;-86
2022/09/23 01:24:17;;;;;;;8.65;5.22;;;;;;;6.43;79.77;101877.77;1780174;80;20986;-86
2022/09/23 01:27:06;;;;;;;;;;;;;;;6.41;79.80;101882.02;1722908;82;21006;-86
2022/09/23 01:29:56;;;;;;;8.85;5.17;;;;;;;6.38;79.82;101872.28;1728777;81;21742;-87
2022/09/23 01:32:48;;;;;;;9.40;4.78;;;;;;;6.34;79.80;101870.68;1741359;80;21502;-86
2022/09/23 01:35:29;;;;;;;7.92;5.15;;;;;;;6.31;79.88;101874.02;1731449;80;20981;-86
2022/09/23 01:38:18;;;;;;;8.10;4.47;;;;;;;6.30;79.91;101866.97;1735028;80;21006;-87
2022/09/23 01:40:53;;;;;;;6.75;4.30;;;;;;;6.28;79.93;101868.59;1709468;83;21007;-86
2022/09/23 01:43:58;;;;;;;9.50;5.20;;;;;;;6.28;79.95;101869.91;1688839;83;21803;-86
2022/09/23 01:46:36;;;;;;;8.80;4.17;;;;;;;6.27;79.97;101874.66;1716601;83;21006;-87
2022/09/23 01:49:20;;;;;;;7.12;4.08;;;;;;;6.26;80.00;101869.33;1745740;80;20978;-87
2022/09/23 01:52:01;;;;;;;4.83;4.10;;;;;;;6.24;80.02;101871.84;1767613;80;20970;-87
2022/09/23 01:54:56;;;;;;;6.97;4.28;;;;;;;6.21;80.04;101862.50;1768198;79;21003;-87
2022/09/23 01:57:30;;;;;;;9.30;5.47;;;;;;;6.19;80.12;101863.73;1753955;80;21826;-86
2022/09/23 02:00:12;;;;;;;6.80;4.28;;;;;;;6.20;80.14;101865.94;1743050;81;20977;-87
2022/09/23 02:02:48;;;;;;;7.53;4.78;;;;;;;6.18;80.08;101867.15;1760966;81;21503;-87
2022/09/23 02:05:27;;;;;;;6.17;4.55;;;;;;;6.17;80.12;101863.13;1732260;81;21080;-87
2022/09/23 02:07:58;;;;;;;7.67;4.60;;;;;;;6.16;80.14;101867.87;1725785;81;20968;-86
2022/09/23 02:10:43;;;;;;;8.10;4.53;;;;;;;6.16;80.20;101870.48;1747881;81;22650;-86
2022/09/23 02:13:29;;;;;;;7.15;4.83;;;;;;;6.17;80.21;101870.97;1715109;81;21440;-86
2022/09/23 02:15:59;;;;;;;5.47;4.17;;;;;;;6.16;80.18;101867.87;1734631;81;21392;-85
2022/09/23 02:18:31;;;;;;;5.22;4.05;;;;;;;6.14;80.18;101860.34;1775937;80;20975;-85
2022/09/23 02:21:01;;;;;;;6.03;3.92;;;;;;;6.14;80.18;101868.19;1735036;81;21013;-85
2022/09/23 02:23:40;;;;;;;5.90;4.05;;;;;;;6.12;80.19;101861.55;1726469;81;22378;-86
2022/09/23 02:26:24;;;;;;;6.22;4.30;;;;;;;6.11;80.24;101866.27;1720650;81;21520;-85
2022/09/23 02:29:11;;;;;;;10.60;4.67;;;;;;;6.10;80.26;101871.02;1734304;82;20967;-86
2022/09/23 02:32:07;;;;;;;8.50;4.80;;;;;;;6.09;80.30;101860.46;1730192;81;21673;-85
2022/09/23 02:34:51;;;;;;;5.72;4.33;;;;;;;6.10;80.34;101863.55;1729652;83;21612;-85
2022/09/23 02:37:48;;;;;;;8.55;4.28;;;;;;;6.12;80.38;101864.55;1729342;82;22559;-86
2022/09/23 02:40:26;;;;;;;7.15;4.20;;;;;;;6.12;80.41;101865.86;1730127;83;21068;-86
2022/09/23 02:43:22;;;;;;;6.00;4.00;;;;;;;6.12;80.38;101868.47;1730088;83;20974;-86
2022/09/23 02:45:49;;;;;;;9.58;4.80;;;;;;;6.11;80.39;101866.27;1729281;82;21456;-87
2022/09/23 02:48:20;;;;;;;6.87;4.40;;;;;;;6.10;80.42;101869.71;1758066;81;20972;-86
2022/09/23 02:50:47;;;;;;;4.87;3.98;;;;;;;6.10;80.50;101871.02;1749069;81;21772;-87
2022/09/23 02:53:17;;;;;;;8.03;4.72;;;;;;;6.12;80.47;101864.17;1737997;81;21096;-86
2022/09/23 02:55:44;;;;;;;5.10;4.12;;;;;;;6.12;80.48;101862.86;1720506;82;20989;-86
2022/09/23 02:58:14;;;;;;;8.93;4.53;;;;;;;6.12;80.44;101865.48;1716948;83;21103;-87
2022/09/23 03:01:11;;;;;;;6.05;4.28;;;;;;;6.11;80.41;101861.45;1718319;83;20983;-87
2022/09/23 03:03:49;;;;;;;8.30;4.03;;;;;;;6.11;80.44;101858.84;1720492;81;22432;-86
2022/09/23 03:06:55;;;;;;;9.78;4.15;;;;;;;6.10;80.42;101851.80;1694614;82;21028;-85
2022/09/23 03:09:49;;;;;;;7.45;4.87;;;;;;;6.09;80.41;101856.13;1713086;81;21033;-85
2022/09/23 03:13:12;;;;;;;9.18;4.47;;;;;;;6.10;80.50;101847.49;1752022;81;21641;-85
2022/09/23 03:16:11;;;;;;;6.20;4.42;;;;;;;6.11;80.53;101845.36;1721471;82;21072;-86
2022/09/23 03:18:58;;;;;;;7.40;4.28;;;;;;;6.11;80.55;101837.93;1742022;82;22573;-85
2022/09/23 03:21:37;;;;;;;8.83;3.65;;;;;;;6.11;80.65;101833.59;1702388;83;21037;-86
2022/09/23 03:24:05;;;;;;;6.08;3.42;;;;;;;6.14;80.67;101843.36;1724204;81;20983;-86
2022/09/23 03:26:35;;;;;;;5.83;3.50;;;;;;;6.15;80.70;101838.61;1683925;82;21144;-86
2022/09/23 03:29:03;;;;;;;5.78;3.37;;;;;;;6.15;80.67;101831.66;1703277;84;21028;-86
2022/09/23 03:31:31;;;;;;;11.57;3.95;;;;;;;6.17;80.70;101833.95;1716186;81;21737;-86
2022/09/23 03:33:59;;;;;;;7.75;3.42;;;;;;;6.17;80.68;101837.88;1710073;82;21456;-86
2022/09/23 03:36:50;;;;;;;5.72;3.17;;;;;;;6.18;80.68;101829.23;1720845;81;20987;-86
2022/09/23 03:39:28;;;;;;;4.33;2.87;;;;;;;6.19;80.70;101822.29;1732975;82;20978;-87
2022/09/23 03:41:57;;;;;;;5.00;3.20;;;;;;;6.20;80.71;101821.08;1713499;82;21512;-88
2022/09/23 03:44:27;;;;;;;6.12;3.30;;;;;;;6.21;80.71;101819.36;1709586;83;21726;-87
2022/09/23 03:46:53;;;;;;;5.12;3.02;;;;;;;6.20;80.71;101819.77;1716854;81;21392;-87
2022/09/23 03:49:33;;;;;;;5.95;3.15;;;;;;;6.20;80.76;101819.77;1721464;82;21042;-86
2022/09/23 03:52:01;;;;;;;5.40;2.70;;;;;;;6.21;80.77;101820.66;1696320;82;21864;-85
2022/09/23 03:54:28;;;;;;;5.85;3.08;;;;;;;6.22;80.76;101821.17;1711202;82;21627;-87
2022/09/23 03:56:57;;;;;;;3.02;2.55;;;;;;;6.23;80.77;101813.81;1729304;82;21728;-84
2022/09/23 03:59:26;;;;;;;3.65;2.60;;;;;;;6.22;80.75;101812.02;1705054;82;20974;-86
2022/09/23 04:01:53;;;;;;;5.95;3.02;;;;;;;6.22;80.76;101814.23;1731093;81;20990;-87
2022/09/23 04:04:20;;;;;;;6.35;2.70;;;;;;;6.21;80.76;101808.52;1728243;81;21086;-88
2022/09/23 04:06:47;;;;;;;4.92;2.60;;;;;;;6.23;80.81;101809.89;1744804;81;21017;-86
2022/09/23 04:09:15;;;;;;;4.85;2.67;;;;;;;6.24;80.82;101803.86;1734812;82;21811;-84
2022/09/23 04:11:43;;;;;;;6.22;2.50;;;;;;;6.25;80.80;101803.45;1739701;82;21577;-88
2022/09/23 04:14:11;;;;;;;4.83;2.77;;;;;;;6.25;80.80;101806.06;1739764;81;20962;-87
2022/09/23 04:16:37;;;;;;;2.77;2.10;;;;;;;6.25;80.86;101804.76;1739565;82;21005;-86
2022/09/23 04:19:04;;;;;;;4.08;2.40;;;;;;;6.25;80.91;101804.76;1739908;82;21001;-88
2022/09/23 04:21:31;;;;;;;3.00;2.33;;;;;;;6.26;80.93;101797.02;1740323;82;22541;-88
2022/09/23 04:23:58;;;;;;;4.45;3.02;;;;;;;6.30;81.00;101798.09;1740168;82;20954;-85
2022/09/23 04:26:25;;;;;;;4.28;2.75;;;;;;;6.31;81.00;101796.89;1732804;82;21410;-86
2022/09/23 04:28:54;;;;;;;5.97;2.60;;;;;;;6.33;81.04;101795.27;1727392;82;20985;-88
2022/09/23 04:31:22;;;;;;;5.65;2.75;;;;;;;6.34;81.04;101795.73;1740623;82;21008;-89
2022/09/23 04:33:50;;;;;;;7.78;3.60;;;;;;;6.37;81.09;101792.01;1740742;82;21692;-87
2022/09/23 04:36:17;;;;;;;8.75;2.52;;;;;;;6.40;81.14;101788.66;1683314;83;20998;-84
2022/09/23 04:38:44;;;;;;;3.25;2.20;;;;;;;6.42;81.14;101791.88;1720003;82;21079;-85
2022/09/23 04:41:11;;;;;;;3.35;2.45;;;;;;;6.47;81.19;101793.86;1721863;81;21433;-85
2022/09/23 04:43:39;;;;;;;5.22;2.58;;;;;;;6.51;81.17;101792.80;1723210;82;21578;-84
2022/09/23 04:46:07;;;;;;;5.50;2.80;;;;;;;6.54;81.16;101789.48;1705055;82;22538;-84
2022/09/23 04:48:36;;;;;;;4.55;2.75;;;;;;;6.57;81.14;101785.33;1725806;82;21473;-86
2022/09/23 04:51:17;;;;;;;4.83;2.52;;;;;;;6.63;81.22;101783.48;1724660;82;20967;-86
2022/09/23 04:53:45;;;;;;;4.35;2.87;;;;;;;6.72;81.29;101795.78;1715987;82;20969;-87
2022/09/23 04:56:18;;;;;;;5.70;2.33;;;;;;;6.84;81.26;101786.41;1726269;82;21044;-88
2022/09/23 04:58:47;;;;;;;6.85;2.83;;;;;;;6.93;81.18;101790.86;1710671;82;21914;-88
2022/09/23 05:01:23;;;;;;;8.30;2.85;;;;;;;7.03;81.08;101788.34;1680279;82;20962;-87
2022/09/23 05:03:51;;;;;;;4.67;2.70;;;;;;;7.13;81.05;101787.13;1709447;82;21040;-91
2022/09/23 05:06:19;;;;;;;3.47;2.45;;;;;;;7.25;81.02;101784.31;1706959;83;21286;-88
2022/09/23 05:08:49;;;;;;;4.33;2.72;;;;;;;7.35;80.93;101792.73;1712907;83;21022;-90
2022/09/23 05:11:16;;;;;;;4.03;2.70;;;;;;;7.47;80.86;101787.67;1702759;83;21767;-89
2022/09/23 05:13:47;;;;;;;3.98;2.55;;;;;;;7.58;80.75;101787.45;1767103;81;20942;-89
2022/09/23 05:16:14;;;;;;;6.00;2.70;;;;;;;7.69;80.65;101788.42;1705672;81;20959;-88
2022/09/23 05:18:42;;;;;;;8.90;2.90;;;;;;;7.77;80.55;101791.95;1764870;81;21024;-89
2022/09/23 05:21:32;;;;;;;4.35;2.42;;;;;;;7.86;80.51;101791.52;1711716;83;21002;-88
2022/09/23 05:23:57;;;;;;;4.17;2.30;;;;;;;7.92;80.34;101793.56;1760070;81;21511;-88
2022/09/23 05:26:27;;;;;;;3.90;3.12;;;;;;;7.98;80.33;101793.48;1765666;81;20962;-86
2022/09/23 05:28:58;;;;;;;4.37;2.40;;;;;;;8.02;80.22;101792.34;1747909;80;20967;-86
2022/09/23 05:31:27;;;;;;;5.65;2.77;;;;;;;8.07;80.13;101785.59;1758898;81;21011;-86
2022/09/23 05:34:02;;;;;;;7.17;2.45;;;;;;;8.09;80.06;101787.50;1707020;82;20987;-87
2022/09/23 05:36:29;;;;;;;6.47;2.60;;;;;;;8.12;79.98;101790.67;1756524;81;22342;-88
2022/09/23 05:38:57;;;;;;;3.17;2.60;;;;;;;8.16;79.96;101787.38;1750580;81;21342;-88
2022/09/23 05:41:24;;;;;;;4.87;2.90;;;;;;;8.18;79.96;101783.11;1759149;81;20984;-88
2022/09/23 05:43:51;;;;;;;4.55;2.45;;;;;;;8.22;79.90;101789.42;1739109;80;21041;-88
2022/09/23 05:46:24;;;;;;;3.85;2.37;;;;;;;8.27;79.92;101784.00;1691807;83;21493;-86
2022/09/23 05:48:51;;;;;;;5.12;2.25;;;;;;;8.30;79.91;101787.69;1720669;81;21737;-88
2022/09/23 05:51:20;;;;;;;4.97;2.33;;;;;;;8.37;80.03;101784.56;1773824;80;20970;-88
2022/09/23 05:53:47;;;;;;;4.12;2.17;;;;;;;8.45;80.08;101784.09;1756014;80;21105;-86
2022/09/23 05:56:15;;;;;;;4.85;1.98;;;;;;;8.54;80.10;101784.55;1739844;81;20989;-88
2022/09/23 05:58:43;;;;;;;5.40;2.20;;;;;;;8.62;80.12;101779.25;1765680;80;21582;-89
2022/09/23 06:01:20;;;;;;;2.92;1.80;;;;;;;8.71;80.12;101778.40;1768514;80;21687;-89
2022/09/23 06:03:47;;;;;;;3.72;2.00;;;;;;;8.80;80.04;101779.66;1744188;80;21486;-89
2022/09/23 06:06:19;;;;;;;2.85;1.90;;;;;;;8.87;80.01;101773.46;1755914;80;20979;-88
2022/09/23 06:08:46;;;;;;;5.08;2.02;;;;;;;8.96;79.98;101773.02;1748761;80;21037;-88
2022/09/23 06:11:13;;;;;;;3.02;1.87;;;;;;;9.05;79.91;101774.77;1735741;80;21008;-87
2022/09/23 06:13:48;;;;;;;7.28;2.65;;;;;;;9.14;79.92;101773.89;1760184;80;22637;-87
2022/09/23 06:16:15;;;;;;;4.28;2.20;;;;;;;9.24;79.93;101764.72;1743893;80;27925;-88
2022/09/23 06:18:44;;;;;;;3.35;2.22;;;;;;;9.34;79.86;101767.34;1735533;82;20989;-88
2022/09/23 06:21:14;;;;;;;4.35;2.20;;;;;;;9.43;79.83;101770.41;1766179;80;20966;-87
2022/09/23 06:23:56;;;;;;;5.15;2.33;;;;;;;9.51;79.76;101766.38;1745772;81;21019;-88
2022/09/23 06:26:24;;;;;;;3.37;2.30;;;;;;;9.61;79.68;101762.86;1751762;81;20962;-87
2022/09/23 06:28:51;;;;;;;4.30;2.50;;;;;;;9.69;79.56;101766.33;1681874;84;21012;-88
2022/09/23 06:31:18;;;;;;;6.70;2.95;;;;;;;9.76;79.49;101767.52;1691142;83;21543;-88
2022/09/23 06:33:45;;;;;;;4.97;2.60;;;;;;;9.85;79.49;101769.63;1704802;83;21018;-88
2022/09/23 06:36:15;;;;;;;7.95;2.45;;;;;;;9.93;79.45;101757.74;1741789;80;21009;-87
2022/09/23 06:38:49;;;;;;;5.00;2.52;;;;;;;10.03;79.39;101766.92;1770842;81;21791;-87
2022/09/23 06:41:19;;;;;;;6.15;2.70;;;;;;;10.11;79.27;101765.52;1766158;81;20959;-88
2022/09/23 06:43:45;;;;;;;3.37;2.30;;;;;;;10.19;79.27;101766.77;1711399;82;21017;-88
2022/09/23 06:46:17;;;;;;;6.28;5.53;;;;;;;10.29;79.25;101770.67;1733657;82;20970;-89
2022/09/23 06:48:44;;;;;;;3.85;2.35;;;;;;;10.38;79.16;101769.79;1702900;82;21028;-88
2022/09/23 06:51:17;;;;;;;6.58;2.60;;;;;;;10.45;79.03;101761.29;1699176;82;21129;-87
2022/09/23 06:53:41;;;;;;;5.42;2.30;;;;;;;10.52;78.98;101757.19;1707774;82;21012;-87
2022/09/23 06:56:10;;;;;;;3.72;2.30;;;;;;;10.58;78.89;101758.75;1725705;83;20981;-87
2022/09/23 06:58:38;;;;;;;5.40;2.20;;;;;;;10.66;78.83;101757.74;1713262;82;21104;-89
2022/09/23 07:01:11;;;;;;;4.10;1.67;;;;;;;10.73;78.76;101754.53;1730442;81;20969;-87
2022/09/23 07:03:38;;;;;;;2.30;1.65;;;;;;;10.78;78.64;101754.73;1714140;82;22400;-87
2022/09/23 07:06:06;;;;;;;3.25;1.87;;;;;;;10.84;78.62;101753.23;1736797;81;20974;-86
2022/09/23 07:08:33;;;;;;;5.92;1.98;;;;;;;10.93;78.62;101751.39;1732164;81;21028;-86
2022/09/23 07:11:02;;;;;;;4.15;1.90;;;;;;;11.00;78.54;101748.16;1767631;80;21370;-87
2022/09/23 07:13:31;;;;;;;2.33;2.00;;;;;;;11.08;78.42;101742.76;1725200;83;21024;-87
2022/09/23 07:15:59;;;;;;;4.20;1.90;;;;;;;11.17;78.41;101746.61;1754088;80;21720;-87
2022/09/23 07:18:26;;;;;;;4.62;1.77;;;;;;;11.28;78.43;101746.59;1775275;79;20986;-87
2022/09/23 07:20:54;;;;;;;3.37;1.90;;;;;;;11.38;78.32;101755.31;1757410;80;21053;-87
2022/09/23 07:23:20;;;;;;;4.28;2.45;;;;;;;11.47;78.22;101746.44;1724037;83;21464;-87
2022/09/23 07:25:50;;;;;;;4.10;1.67;;;;;;;11.57;78.16;101743.72;1738238;81;21477;-87
2022/09/23 07:28:18;;;;;;;4.65;1.98;;;;;;;11.67;78.02;101747.58;1736621;81;21777;-86
2022/09/23 07:30:49;;;;;;;3.22;1.80;;;;;;;11.75;77.98;101740.86;1729522;82;20949;-87
2022/09/23 07:33:16;;;;;;;3.77;1.70;;;;;;;11.85;77.96;101748.25;1741697;81;21007;-87
2022/09/23 07:35:43;;;;;;;3.27;1.67;;;;;;;11.94;77.69;101743.77;1760834;81;21018;-87
2022/09/23 07:38:10;;;;;;;4.00;1.55;;;;;;;12.02;77.60;101747.99;1708089;83;20984;-89
2022/09/23 07:40:42;;;;;;;2.15;1.45;;;;;;;12.10;77.56;101742.55;1699234;82;21760;-89
2022/09/23 07:43:07;;;;;;;1.80;1.07;;;;;;;12.20;77.46;101742.03;1705579;82;21566;-89
2022/09/23 07:45:34;;;;;;;5.03;2.27;;;;;;;12.30;77.30;101741.03;1721998;82;21467;-88
2022/09/23 07:48:02;;;;;;;1.82;1.57;;;;;;;12.37;77.16;101738.64;1715995;82;21000;-88
2022/09/23 07:50:31;;;;;;;3.17;1.52;;;;;;;12.45;77.06;101738.90;1707402;82;21013;-86
2022/09/23 07:52:57;;;;;;;4.83;2.10;;;;;;;12.53;77.04;101732.55;1707782;82;21761;-87
2022/09/23 07:55:24;;;;;;;4.25;1.50;;;;;;;12.62;76.94;101732.84;1707408;82;21009;-87
2022/09/23 07:57:51;;;;;;;2.10;1.60;;;;;;;12.70;76.71;101731.77;1728833;82;21165;-87
2022/09/23 08:00:18;;;;;;;2.80;1.75;;;;;;;12.77;76.54;101732.44;1743154;82;20999;-89
2022/09/23 08:02:45;;;;;;;6.45;1.82;;;;;;;12.84;76.43;101721.22;1732167;82;20982;-87
2022/09/23 08:05:12;;;;;;;2.50;1.72;;;;;;;12.93;76.29;101719.27;1711556;82;21754;-87
2022/09/23 08:07:39;;;;;;;2.40;1.40;;;;;;;13.02;76.24;101723.52;1709263;82;21020;-87
2022/09/23 08:10:08;;;;;;;2.62;2.17;;;;;;;13.11;76.07;101726.88;1732833;81;21033;-87
2022/09/23 08:12:35;;;;;;;2.55;1.82;;;;;;;13.18;75.80;101725.78;1731264;81;21094;-87
2022/09/23 08:15:02;;;;;;;2.72;1.07;;;;;;;13.26;75.67;101731.73;1702974;83;20974;-86
2022/09/23 08:17:29;;;;;;;2.08;1.40;;;;;;;13.32;75.36;101735.91;1708181;82;21744;-85
2022/09/23 08:19:56;;;;;;;1.42;1.02;;;;;;;13.34;74.85;101732.44;1711318;82;20993;-86
2022/09/23 08:22:30;;;;;;;2.83;1.15;;;;;;;13.37;74.85;101729.90;1707561;82;20997;-85
2022/09/23 08:24:57;;;;;;;3.65;1.17;;;;;;;13.43;74.68;101726.97;1692810;82;21155;-88
2022/09/23 08:27:26;;;;;;;3.87;1.70;;;;;;;13.49;74.67;101721.84;1711669;82;21462;-86
2022/09/23 08:30:01;;;;;;;1.22;0.95;;;;;;;13.52;74.34;101725.48;1732537;82;22103;-87
2022/09/23 08:32:28;;;;;;;1.20;0.90;;;;;;;13.58;74.04;101727.41;1707283;82;21001;-87
2022/09/23 08:34:55;;;;;;;2.70;1.87;;;;;;;13.61;73.40;101727.50;1708892;82;21079;-88
2022/09/23 08:37:22;;;;;;;2.37;1.20;;;;;;;13.65;73.41;101722.76;1729908;82;20991;-90
2022/09/23 08:39:49;;;;;;;2.10;0.98;;;;;;;13.70;73.16;101722.88;1711908;81;21065;-88
2022/09/23 08:42:19;;;;;;;1.30;1.20;;;;;;;13.76;73.17;101721.74;1707035;82;21816;-86
2022/09/23 08:44:53;;;;;;;2.83;1.42;;;;;;;13.81;72.72;101728.03;1732565;82;21070;-86
2022/09/23 08:48:05;;;;;;;2.22;1.35;;;;;;;13.85;72.39;101726.37;1703712;82;21043;-86
2022/09/23 08:50:41;;;;;;;2.42;1.05;;;;;;;13.92;71.87;101728.33;1682225;82;21427;-86
2022/09/23 08:53:27;;;;;;;1.70;1.05;;;;;;;13.97;71.36;101728.92;1708862;82;21022;-86
2022/09/23 08:55:58;;;;;;;1.92;1.20;;;;;;;14.06;71.28;101728.28;1728187;82;22580;-89
2022/09/23 08:59:08;;;;;;;2.17;0.95;;;;;;;14.16;70.99;101721.03;1694333;83;21444;-86
2022/09/23 09:01:58;;;;;;;3.12;1.22;;;;;;;14.28;70.94;101722.20;1734350;81;20983;-86
2022/09/23 09:04:45;;;;;;;1.35;0.93;;;;;;;14.39;70.50;101722.93;1727020;82;20970;-86
2022/09/23 09:07:21;;;;;;;3.62;1.70;;;;;;;14.48;70.08;101720.95;1750439;79;20985;-86
2022/09/23 09:09:59;;;;;;;1.67;1.12;;;;;;;14.55;69.54;101720.69;1727162;81;22654;-89
2022/09/23 09:12:49;;;;;;;1.87;1.07;;;;;;;14.62;69.32;101720.01;1729719;81;21041;-86
2022/09/23 09:15:22;;;;;;;3.10;0.90;;;;;;;14.75;69.11;101718.52;1730338;83;20983;-86
2022/09/23 09:18:08;;;;;;;1.92;1.22;;;;;;;14.92;68.71;101712.28;1735490;81;21474;-86
2022/09/23 09:21:15;;;;;;;2.60;1.20;;;;;;;15.09;68.59;101719.28;1701933;83;21062;-88
2022/09/23 09:23:47;;;;;;;2.27;1.07;;;;;;;15.24;68.23;101714.73;1740308;80;22652;-89
2022/09/23 09:26:26;;;;;;;1.00;0.75;;;;;;;15.36;67.63;101710.59;1739483;80;20993;-88
2022/09/23 09:29:28;;;;;;;2.83;1.07;;;;;;;15.47;67.33;101709.50;1739975;80;21056;-89
2022/09/23 09:31:56;;;;;;;2.35;0.95;;;;;;;15.67;67.27;101704.59;1739244;80;21009;-89
2022/09/23 09:34:40;;;;;;;2.72;1.10;;;;;;;15.90;66.97;101701.06;1740782;80;21041;-86
2022/09/23 09:37:24;;;;;;;1.00;0.85;;;;;;;16.10;66.50;101701.44;1762361;80;22602;-86
2022/09/23 09:39:52;;;;;;;1.35;0.95;;;;;;;16.33;66.23;101700.48;1740632;80;20993;-88
2022/09/23 09:42:26;;;;;;;2.12;0.85;;;;;;;16.68;66.01;101696.58;1741575;81;21015;-86
2022/09/23 09:45:00;;;;;;;6.10;0.90;;;;;;;17.05;65.92;101694.48;1742345;80;21003;-86
2022/09/23 09:47:57;;;;;;;1.15;0.75;;;;;;;17.40;65.01;101694.03;1778419;80;21493;-89
2022/09/23 09:50:48;;;;;;;1.95;1.00;;;;;;;17.68;64.51;101697.89;1723386;80;21731;-89
2022/09/23 09:53:28;;;;;;;2.52;1.37;;;;;;;17.94;63.59;101686.21;1743188;80;20973;-86
2022/09/23 09:56:10;;;;;;;1.35;1.25;;;;;;;18.15;63.25;101690.87;1759073;80;21000;-87
2022/09/23 09:58:47;;;;;;;1.40;1.00;;;;;;;18.35;62.78;101687.47;1752073;80;21032;-88
2022/09/23 10:01:24;;;;;;;1.65;1.02;;;;;;;18.47;61.74;101686.24;1754413;80;20962;-89
2022/09/23 10:03:56;;;;;;;2.47;1.20;;;;;;;18.51;60.49;101679.16;1774367;80;21704;-86
2022/09/23 10:06:26;;;;;;;1.42;1.10;;;;;;;18.67;60.59;101678.81;1762103;81;20985;-88
2022/09/23 10:09:04;;;;;;;1.60;1.22;;;;;;;18.90;60.68;101678.55;1744927;81;21365;-88
2022/09/23 10:11:31;;;;;;;2.10;0.95;;;;;;;19.13;60.72;101675.98;1694087;83;20990;-86
2022/09/23 10:14:17;;;;;;;1.42;1.32;;;;;;;19.34;60.05;101674.29;1692172;82;21065;-86
2022/09/23 10:16:46;;;;;;;1.55;0.95;;;;;;;19.53;59.22;101669.44;1780989;80;21786;-86
2022/09/23 10:19:24;;;;;;;1.75;0.90;;;;;;;19.53;59.22;101669.44;1778116;80;20961;-86
2022/09/23 10:21:55;;;;;;;4.22;1.30;;;;;;;19.53;58.36;101670.78;1749944;81;21102;-86
2022/09/23 10:24:23;;;;;;;3.52;1.07;;;;;;;19.41;58.11;101666.75;1740134;80;20966;-88
2022/09/23 10:27:00;;;;;;;2.95;1.40;;;;;;;19.40;58.03;101671.63;1765648;81;20966;-86
2022/09/23 10:29:33;;;;;;;1.77;1.00;;;;;;;19.40;57.73;101671.18;1771277;81;21899;-86
2022/09/23 10:32:28;;;;;;;2.00;1.07;;;;;;;18.86;56.83;101655.83;1760364;80;21005;-87
2022/09/23 10:35:12;;;;;;;1.57;1.30;;;;;;;18.86;56.83;101655.83;1757816;79;21695;-86
2022/09/23 10:37:51;;;;;;;2.40;1.92;;;;;;;18.82;56.78;101669.14;1732837;81;21041;-88
2022/09/23 10:47:03;;;;;;;7.83;5.75;;;;;;;18.86;56.81;101667.84;1770192;81;21026;-87
2022/09/23 10:50:14;;;;;;;8.53;7.62;;;;;;;18.82;56.85;101674.48;1744123;81;21037;-89
2022/09/23 10:53:07;;;;;;;2.47;1.90;;;;;;;18.84;56.58;101670.07;1711756;83;21530;-89
2022/09/23 10:55:42;;;;;;;4.92;4.37;;;;;;;18.69;56.20;101667.70;1724738;81;21013;-87
2022/09/23 10:58:34;;;;;;;11.57;7.35;;;;;;;18.64;56.13;101667.24;1760952;81;21684;-86
2022/09/23 11:01:42;;;;;;;2.20;1.70;;;;;;;18.63;56.07;101668.11;1757641;80;21021;-86
2022/09/23 11:04:43;;;;;;;2.17;1.40;;;;;;;18.61;55.92;101665.88;1740288;81;20994;-87
2022/09/23 11:07:37;;;;;;;4.03;1.10;;;;;;;18.65;56.06;101661.45;1761216;81;21515;-86
2022/09/23 11:10:26;;;;;;;3.98;1.67;;;;;;;18.70;55.87;101660.17;1756860;80;21018;-89
2022/09/23 11:13:07;;;;;;;6.10;4.65;;;;;;;18.69;55.72;101650.37;1735391;81;21784;-89
2022/09/23 11:15:42;;;;;;;2.52;1.70;;;;;;;18.67;55.47;101655.69;1735685;81;20966;-89
2022/09/23 11:18:46;;;;;;;1.67;1.00;;;;;;;18.61;55.43;101655.66;1738951;81;20974;-86
2022/09/23 11:21:50;;;;;;;3.27;2.83;;;;;;;18.58;55.34;101657.88;1725031;81;21006;-88
2022/09/23 11:24:46;;;;;;;8.98;3.33;;;;;;;18.60;55.10;101650.78;1716642;83;21523;-88
2022/09/23 11:27:30;;;;;;;4.67;3.25;;;;;;;18.58;55.04;101644.55;1730600;82;21703;-88
2022/09/23 11:30:21;;;;;;;2.50;2.00;;;;;;;18.57;55.11;101644.53;1739230;80;20986;-85
2022/09/23 11:33:12;;;;;;;1.25;1.12;;;;;;;18.40;54.88;101639.09;1766107;80;20968;-86
2022/09/23 11:35:56;;;;;;;2.02;1.20;;;;;;;18.37;54.96;101637.72;1750410;80;21026;-86
2022/09/23 11:38:41;;;;;;;4.08;2.17;;;;;;;18.43;54.99;101640.42;1736437;82;21471;-86
2022/09/23 11:41:30;;;;;;;2.42;1.30;;;;;;;18.47;54.87;101630.26;1714176;80;21912;-89
2022/09/23 11:44:12;;;;;;;2.25;1.25;;;;;;;18.59;55.02;101632.09;1746979;80;21002;-86
2022/09/23 11:46:42;;;;;;;0.98;0.70;;;;;;;18.71;54.77;101629.94;1725689;81;21019;-87
2022/09/23 11:49:17;;;;;;;1.60;0.80;;;;;;;18.74;54.74;101627.30;1725872;81;20962;-88
2022/09/23 11:52:07;;;;;;;1.52;0.85;;;;;;;18.87;55.18;101631.84;1730681;81;21475;-86
2022/09/23 11:54:45;;;;;;;1.25;1.00;;;;;;;18.94;54.70;101634.08;1716907;82;21752;-86
2022/09/23 11:57:20;;;;;;;3.47;0.95;;;;;;;18.95;54.26;101623.87;1715538;81;20973;-86
2022/09/23 11:59:55;;;;;;;1.00;0.90;;;;;;;18.99;54.00;101625.20;1734283;80;21016;-89
2022/09/23 12:02:30;;;;;;;1.47;1.25;;;;;;;19.01;54.01;101622.55;1740129;81;20985;-85
2022/09/23 12:05:09;;;;;;;4.17;1.07;;;;;;;19.04;53.82;101615.91;1731201;82;21123;-88
2022/09/23 12:07:52;;;;;;;2.67;1.10;;;;;;;19.07;53.83;101615.01;1724671;82;21714;-85
2022/09/23 12:10:23;;;;;;;1.25;0.82;;;;;;;19.07;53.59;101614.59;1695898;82;21009;-85
2022/09/23 12:13:01;;;;;;;2.45;1.10;;;;;;;19.06;53.48;101607.91;1686679;84;20987;-89